Time;durP1;ratioP1;P1;durP2;ratioP2;P2;SDS_P1;SDS_P2;PMS_P1;PMS_P2;Temp;Humidity;BMP_temperature;BMP_pressure;BME280_temperature;BME280_humidity;BME280_pressure;Samples;Min_cycle;Max_cycle;Signal;HPM_P1;HPM_P2
2022/07/11 00:01:10;;;;;;;2.40;1.30;;;;;;;;;;4993984;28;20050;-82
2022/07/11 00:03:36;;;;;;;2.30;1.50;;;;;;;;;;4993901;28;20033;-81
2022/07/11 00:06:01;;;;;;;4.65;1.40;;;;;;;;;;4993369;28;20031;-83
2022/07/11 00:08:27;;;;;;;3.28;1.50;;;;;;;;;;4992343;28;20049;-82
2022/07/11 00:10:53;;;;;;;3.50;1.42;;;;;;;;;;4992579;28;20022;-81
2022/07/11 00:13:19;;;;;;;3.53;1.30;;;;;;;;;;4992544;28;20105;-81
2022/07/11 00:15:44;;;;;;;2.53;1.35;;;;;;;;;;4993757;28;20061;-82
2022/07/11 00:18:10;;;;;;;2.88;1.30;;;;;;;;;;4992240;28;20029;-81
2022/07/11 00:20:35;;;;;;;2.65;1.35;;;;;;;;;;4993732;28;20124;-81
2022/07/11 00:23:01;;;;;;;2.47;1.30;;;;;;;;;;4992100;28;20022;-81
2022/07/11 00:25:26;;;;;;;2.85;1.58;;;;;;;;;;4993332;28;20034;-82
2022/07/11 00:27:51;;;;;;;3.60;1.40;;;;;;;;;;4992262;28;20030;-81
2022/07/11 00:30:18;;;;;;;5.30;1.50;;;;;;;;;;4991918;28;20030;-80
2022/07/11 00:32:43;;;;;;;4.85;1.52;;;;;;;;;;4992479;28;20018;-82
2022/07/11 00:35:09;;;;;;;3.60;1.55;;;;;;;;;;4991885;28;20375;-81
2022/07/11 00:37:34;;;;;;;3.92;1.73;;;;;;;;;;4993609;28;20029;-81
2022/07/11 00:39:59;;;;;;;2.20;1.40;;;;;;;;;;4991859;28;20057;-82
2022/07/11 00:42:25;;;;;;;4.07;1.50;;;;;;;;;;4992225;28;20022;-81
2022/07/11 00:44:51;;;;;;;2.53;1.50;;;;;;;;;;4992308;28;20019;-82
2022/07/11 00:47:16;;;;;;;3.13;1.40;;;;;;;;;;4991771;28;20026;-81
2022/07/11 00:49:42;;;;;;;3.97;1.45;;;;;;;;;;4991408;28;20026;-81
2022/07/11 00:52:09;;;;;;;4.70;1.45;;;;;;;;;;4991290;28;20081;-80
2022/07/11 00:54:34;;;;;;;4.45;1.40;;;;;;;;;;4992241;28;20033;-81
2022/07/11 00:57:00;;;;;;;3.35;1.55;;;;;;;;;;4991321;28;20129;-81
2022/07/11 00:59:27;;;;;;;6.25;1.70;;;;;;;;;;4991367;28;20030;-81
2022/07/11 01:01:52;;;;;;;5.07;1.60;;;;;;;;;;4992270;28;20037;-81
2022/07/11 01:04:18;;;;;;;3.10;1.50;;;;;;;;;;4974084;28;20026;-81
2022/07/11 01:06:43;;;;;;;9.18;1.95;;;;;;;;;;4991567;28;20021;-81
2022/07/11 01:09:09;;;;;;;3.55;1.55;;;;;;;;;;4991048;28;20419;-81
2022/07/11 01:11:35;;;;;;;3.33;1.40;;;;;;;;;;4973717;28;20384;-81
2022/07/11 01:14:00;;;;;;;2.63;1.52;;;;;;;;;;4991222;28;20399;-81
2022/07/11 01:16:25;;;;;;;3.15;1.50;;;;;;;;;;4991243;28;20101;-81
2022/07/11 01:18:53;;;;;;;3.13;1.67;;;;;;;;;;4973634;28;20052;-80
2022/07/11 01:21:25;;;;;;;2.72;1.50;;;;;;;;;;4991906;28;20513;-80
2022/07/11 01:23:53;;;;;;;3.28;1.33;;;;;;;;;;4991204;28;20076;-80
2022/07/11 01:26:20;;;;;;;3.08;1.88;;;;;;;;;;4973417;28;20084;-81
2022/07/11 01:28:46;;;;;;;2.72;1.60;;;;;;;;;;4990657;28;20081;-81
2022/07/11 01:31:12;;;;;;;3.15;1.50;;;;;;;;;;4991207;28;20030;-81
2022/07/11 01:33:39;;;;;;;4.45;1.80;;;;;;;;;;4990994;28;20482;-81
2022/07/11 01:36:05;;;;;;;4.03;1.50;;;;;;;;;;4991168;28;20037;-81
2022/07/11 01:38:30;;;;;;;5.72;1.60;;;;;;;;;;4990957;28;20026;-81
2022/07/11 01:40:56;;;;;;;2.88;1.50;;;;;;;;;;4990753;28;20076;-80
2022/07/11 01:43:21;;;;;;;3.83;1.60;;;;;;;;;;4990964;28;20041;-81
2022/07/11 01:45:51;;;;;;;2.72;1.50;;;;;;;;;;4990730;28;20367;-81
2022/07/11 01:48:16;;;;;;;7.73;1.83;;;;;;;;;;4990813;28;20552;-81
2022/07/11 01:50:41;;;;;;;3.15;1.60;;;;;;;;;;4990819;28;20070;-81
2022/07/11 01:53:07;;;;;;;2.90;1.45;;;;;;;;;;4990840;28;20022;-81
2022/07/11 01:55:33;;;;;;;4.68;1.70;;;;;;;;;;4990865;28;20120;-81
2022/07/11 01:57:58;;;;;;;6.00;1.80;;;;;;;;;;4990558;28;20121;-81
2022/07/11 02:00:24;;;;;;;3.28;1.80;;;;;;;;;;4993565;28;20109;-81
2022/07/11 02:02:49;;;;;;;2.33;1.50;;;;;;;;;;4994710;28;20386;-81
2022/07/11 02:05:14;;;;;;;4.35;1.80;;;;;;;;;;4994575;28;20115;-81
2022/07/11 02:10:28;;;;;;;2.60;1.55;;;;;;;;;;4994581;28;20037;-81
2022/07/11 02:12:54;;;;;;;;;;;;;;;;;;4995163;28;20049;-80
2022/07/11 02:15:19;;;;;;;5.68;1.70;;;;;;;;;;4994623;28;19910;-81
2022/07/11 02:17:45;;;;;;;4.40;1.90;;;;;;;;;;4976884;28;20033;-81
2022/07/11 02:20:10;;;;;;;3.08;1.45;;;;;;;;;;4994048;28;20537;-81
2022/07/11 02:22:36;;;;;;;4.38;1.73;;;;;;;;;;4993927;28;20057;-80
2022/07/11 02:25:02;;;;;;;5.35;1.70;;;;;;;;;;4994417;28;20034;-80
2022/07/11 02:27:27;;;;;;;5.40;1.60;;;;;;;;;;4994471;28;20038;-81
2022/07/11 02:29:52;;;;;;;4.50;1.60;;;;;;;;;;4994110;28;20048;-81
2022/07/11 02:32:18;;;;;;;4.45;1.52;;;;;;;;;;4994360;28;20466;-81
2022/07/11 02:34:43;;;;;;;3.72;1.70;;;;;;;;;;4994168;28;20037;-81
2022/07/11 02:37:09;;;;;;;4.32;1.48;;;;;;;;;;4994214;28;20015;-80
2022/07/11 02:39:34;;;;;;;3.63;1.40;;;;;;;;;;4994066;28;20125;-81
2022/07/11 02:42:00;;;;;;;2.80;1.38;;;;;;;;;;4994124;28;20105;-80
2022/07/11 02:44:25;;;;;;;3.55;1.40;;;;;;;;;;4994144;28;20181;-81
2022/07/11 02:46:50;;;;;;;4.13;1.50;;;;;;;;;;4994372;28;20030;-81
2022/07/11 02:49:16;;;;;;;5.30;1.80;;;;;;;;;;4993967;28;20478;-80
2022/07/11 02:51:41;;;;;;;3.00;1.60;;;;;;;;;;4994003;28;20670;-80
2022/07/11 02:54:07;;;;;;;2.88;1.50;;;;;;;;;;4993586;28;20018;-81
2022/07/11 02:56:32;;;;;;;4.03;1.55;;;;;;;;;;4993591;28;20034;-81
2022/07/11 02:58:58;;;;;;;4.22;1.50;;;;;;;;;;4993852;28;20045;-81
2022/07/11 03:01:23;;;;;;;2.13;1.38;;;;;;;;;;4993402;28;20037;-80
2022/07/11 03:03:49;;;;;;;3.20;1.40;;;;;;;;;;4993820;28;20487;-80
2022/07/11 03:06:14;;;;;;;4.18;1.50;;;;;;;;;;4993786;28;20113;-80
2022/07/11 03:08:40;;;;;;;4.15;1.38;;;;;;;;;;4993548;28;20054;-81
2022/07/11 03:11:05;;;;;;;3.10;1.50;;;;;;;;;;4992140;28;20391;-81
2022/07/11 03:13:31;;;;;;;2.58;1.50;;;;;;;;;;4993356;28;20085;-81
2022/07/11 03:15:57;;;;;;;4.85;1.70;;;;;;;;;;4993502;28;20050;-79
2022/07/11 03:18:22;;;;;;;4.95;1.42;;;;;;;;;;4993426;28;20438;-79
2022/07/11 03:20:48;;;;;;;2.75;1.48;;;;;;;;;;4993324;28;20030;-81
2022/07/11 03:23:13;;;;;;;3.92;1.40;;;;;;;;;;4993234;28;20081;-80
2022/07/11 03:25:39;;;;;;;3.78;1.40;;;;;;;;;;4993284;28;20023;-80
2022/07/11 03:28:04;;;;;;;3.10;1.50;;;;;;;;;;4993131;28;20387;-79
2022/07/11 03:30:30;;;;;;;3.88;1.50;;;;;;;;;;4993217;28;20042;-80
2022/07/11 03:32:55;;;;;;;5.00;1.52;;;;;;;;;;4993201;28;20046;-78
2022/07/11 03:38:04;;;;;;;2.50;1.50;;;;;;;;;;4993074;28;20041;-80
2022/07/11 03:40:30;;;;;;;3.55;1.50;;;;;;;;;;4993264;28;20022;-79
2022/07/11 03:42:55;;;;;;;3.25;1.75;;;;;;;;;;4993161;28;20085;-80
2022/07/11 03:45:21;;;;;;;3.30;1.63;;;;;;;;;;4993012;28;20037;-79
2022/07/11 03:47:48;;;;;;;4.93;1.55;;;;;;;;;;4992860;28;20035;-80
2022/07/11 03:50:14;;;;;;;5.75;1.65;;;;;;;;;;4992304;28;20038;-77
2022/07/11 03:52:39;;;;;;;3.95;1.60;;;;;;;;;;4992599;28;20502;-80
2022/07/11 03:55:05;;;;;;;2.85;1.60;;;;;;;;;;4992931;28;20026;-81
2022/07/11 03:57:30;;;;;;;3.72;1.77;;;;;;;;;;4992630;28;20410;-80
2022/07/11 03:59:56;;;;;;;4.15;1.55;;;;;;;;;;4992482;28;20038;-80
2022/07/11 04:02:21;;;;;;;2.58;1.63;;;;;;;;;;4992540;28;20027;-81
2022/07/11 04:04:47;;;;;;;3.50;1.52;;;;;;;;;;4992325;28;20027;-81
2022/07/11 04:07:13;;;;;;;5.82;1.65;;;;;;;;;;4992563;28;20041;-80
2022/07/11 04:09:38;;;;;;;4.57;1.73;;;;;;;;;;4992435;28;20038;-80
2022/07/11 04:12:04;;;;;;;2.95;1.58;;;;;;;;;;4992342;28;20380;-81
2022/07/11 04:14:29;;;;;;;2.50;1.80;;;;;;;;;;4992515;28;20491;-81
2022/07/11 04:16:55;;;;;;;4.57;1.52;;;;;;;;;;4992328;28;20108;-80
2022/07/11 04:19:20;;;;;;;2.45;1.50;;;;;;;;;;4992970;28;20114;-81
2022/07/11 04:21:45;;;;;;;4.07;1.65;;;;;;;;;;4974099;28;20038;-79
2022/07/11 04:24:11;;;;;;;2.72;1.60;;;;;;;;;;4991793;28;20072;-81
2022/07/11 04:26:36;;;;;;;5.43;1.67;;;;;;;;;;4992096;28;20034;-80
2022/07/11 04:29:02;;;;;;;3.70;1.60;;;;;;;;;;4992130;28;20041;-80
2022/07/11 04:31:27;;;;;;;7.32;1.70;;;;;;;;;;4992362;28;20080;-79
2022/07/11 04:33:53;;;;;;;4.25;1.60;;;;;;;;;;4991965;28;20065;-80
2022/07/11 04:36:18;;;;;;;4.20;1.55;;;;;;;;;;4991941;28;20641;-80
2022/07/11 04:38:44;;;;;;;6.25;1.60;;;;;;;;;;4991582;28;20084;-81
2022/07/11 04:41:10;;;;;;;4.30;1.50;;;;;;;;;;4991669;28;20026;-80
2022/07/11 04:43:36;;;;;;;3.20;1.50;;;;;;;;;;4991860;28;20030;-80
2022/07/11 04:46:04;;;;;;;3.40;1.60;;;;;;;;;;4991849;28;20601;-81
2022/07/11 04:48:30;;;;;;;6.28;1.77;;;;;;;;;;4991701;28;20031;-80
2022/07/11 04:50:56;;;;;;;3.78;1.70;;;;;;;;;;4991555;28;20036;-80
2022/07/11 04:53:21;;;;;;;5.32;1.60;;;;;;;;;;4991672;28;20018;-80
2022/07/11 04:55:47;;;;;;;3.55;1.60;;;;;;;;;;4991604;28;20045;-80
2022/07/11 04:58:12;;;;;;;3.75;1.50;;;;;;;;;;4992821;28;20042;-79
2022/07/11 05:00:37;;;;;;;3.28;1.70;;;;;;;;;;4991329;28;20065;-79
2022/07/11 05:03:03;;;;;;;3.28;1.58;;;;;;;;;;4991571;28;20113;-80
2022/07/11 05:05:28;;;;;;;4.68;1.70;;;;;;;;;;4991604;28;20034;-80
2022/07/11 05:07:54;;;;;;;2.05;1.40;;;;;;;;;;4991308;28;20074;-81
2022/07/11 05:10:20;;;;;;;5.43;1.75;;;;;;;;;;4991189;28;20026;-80
2022/07/11 05:12:45;;;;;;;3.58;1.55;;;;;;;;;;4991182;28;20030;-80
2022/07/11 05:15:10;;;;;;;4.93;1.50;;;;;;;;;;4991104;28;20035;-80
2022/07/11 05:17:36;;;;;;;5.93;1.70;;;;;;;;;;4991081;28;20130;-79
2022/07/11 05:20:02;;;;;;;4.07;1.77;;;;;;;;;;4991500;28;20645;-80
2022/07/11 05:22:27;;;;;;;9.55;1.80;;;;;;;;;;4990944;28;20026;-80
2022/07/11 05:24:53;;;;;;;8.88;2.00;;;;;;;;;;4991082;28;20034;-80
2022/07/11 05:27:18;;;;;;;5.75;1.92;;;;;;;;;;4991308;28;20031;-79
2022/07/11 05:29:44;;;;;;;12.43;2.20;;;;;;;;;;4990933;28;20162;-80
2022/07/11 05:32:10;;;;;;;3.47;1.80;;;;;;;;;;4990784;28;20105;-80
2022/07/11 05:34:35;;;;;;;4.80;1.80;;;;;;;;;;4990207;28;20034;-80
2022/07/11 05:37:00;;;;;;;10.30;1.90;;;;;;;;;;4990965;28;20037;-80
2022/07/11 05:39:26;;;;;;;5.82;1.83;;;;;;;;;;4991182;28;20033;-80
2022/07/11 05:41:52;;;;;;;9.18;1.90;;;;;;;;;;4990766;28;20034;-80
2022/07/11 05:44:18;;;;;;;4.03;1.77;;;;;;;;;;4990997;28;20482;-80
2022/07/11 05:46:47;;;;;;;10.55;2.05;;;;;;;;;;4990837;28;20065;-80
2022/07/11 05:49:15;;;;;;;10.10;2.08;;;;;;;;;;4990591;28;20027;-81
2022/07/11 05:51:41;;;;;;;6.88;1.95;;;;;;;;;;4990531;28;20077;-80
2022/07/11 05:54:07;;;;;;;5.28;2.10;;;;;;;;;;4990797;28;20040;-80
2022/07/11 05:56:32;;;;;;;6.50;1.80;;;;;;;;;;4978455;28;20053;-80
2022/07/11 05:58:57;;;;;;;10.02;2.00;;;;;;;;;;4990881;28;20037;-80
2022/07/11 06:01:23;;;;;;;7.13;1.70;;;;;;;;;;4991720;28;20039;-80
2022/07/11 06:03:49;;;;;;;7.60;1.90;;;;;;;;;;4990717;28;20121;-80
2022/07/11 06:06:16;;;;;;;6.38;1.80;;;;;;;;;;4990605;28;20030;-81
2022/07/11 06:08:42;;;;;;;5.50;1.73;;;;;;;;;;4972920;28;20038;-80
2022/07/11 06:11:13;;;;;;;6.18;1.90;;;;;;;;;;4990598;28;20045;-81
2022/07/11 06:13:39;;;;;;;5.20;1.92;;;;;;;;;;4991089;28;20026;-80
2022/07/11 06:16:06;;;;;;;13.40;2.10;;;;;;;;;;4990662;28;20030;-80
2022/07/11 06:18:32;;;;;;;9.98;2.30;;;;;;;;;;4990780;28;20026;-81
2022/07/11 06:20:58;;;;;;;8.50;2.03;;;;;;;;;;4990268;28;20077;-80
2022/07/11 06:23:23;;;;;;;6.50;2.15;;;;;;;;;;4990312;28;20034;-80
2022/07/11 06:25:48;;;;;;;7.95;2.50;;;;;;;;;;4990240;28;20027;-81
2022/07/11 06:28:14;;;;;;;5.38;2.05;;;;;;;;;;4990475;28;20031;-79
2022/07/11 06:30:39;;;;;;;6.47;2.10;;;;;;;;;;4990134;28;20045;-79
2022/07/11 06:33:05;;;;;;;6.85;1.67;;;;;;;;;;4990648;28;20062;-81
2022/07/11 06:35:30;;;;;;;4.93;2.00;;;;;;;;;;4990640;28;20019;-81
2022/07/11 06:37:56;;;;;;;7.13;1.70;;;;;;;;;;4990186;28;20029;-81
2022/07/11 06:40:23;;;;;;;3.13;1.77;;;;;;;;;;4990260;28;20109;-80
2022/07/11 06:42:48;;;;;;;8.30;1.65;;;;;;;;;;4990077;28;20640;-84
2022/07/11 06:45:14;;;;;;;8.48;1.95;;;;;;;;;;4991056;28;20035;-77
2022/07/11 06:47:40;;;;;;;3.75;1.52;;;;;;;;;;5000584;28;20033;-79
2022/07/11 06:50:06;;;;;;;4.95;1.50;;;;;;;;;;4994065;28;20042;-77
2022/07/11 06:52:32;;;;;;;4.15;1.50;;;;;;;;;;4993730;28;20422;-79
2022/07/11 06:54:58;;;;;;;4.90;1.88;;;;;;;;;;4993870;28;20037;-81
2022/07/11 06:57:23;;;;;;;2.67;1.60;;;;;;;;;;4996994;28;20129;-77
2022/07/11 06:59:49;;;;;;;5.97;1.77;;;;;;;;;;4993586;28;20019;-81
2022/07/11 07:02:15;;;;;;;5.20;1.80;;;;;;;;;;4975464;28;20394;-82
2022/07/11 07:04:40;;;;;;;4.63;1.90;;;;;;;;;;4995594;28;20029;-83
2022/07/11 07:07:06;;;;;;;5.70;1.85;;;;;;;;;;5004485;28;20060;-82
2022/07/11 07:09:31;;;;;;;7.28;1.80;;;;;;;;;;5004339;28;20038;-82
2022/07/11 07:11:57;;;;;;;5.78;1.80;;;;;;;;;;4997525;28;20121;-78
2022/07/11 07:14:23;;;;;;;6.70;1.70;;;;;;;;;;4993445;28;20081;-79
2022/07/11 07:16:48;;;;;;;8.85;1.88;;;;;;;;;;4993135;28;20387;-80
2022/07/11 07:19:15;;;;;;;5.35;1.95;;;;;;;;;;4993298;28;20068;-78
2022/07/11 07:21:40;;;;;;;3.30;1.58;;;;;;;;;;4992928;28;20617;-76
2022/07/11 07:24:06;;;;;;;6.50;1.77;;;;;;;;;;4993762;28;20087;-79
2022/07/11 07:26:32;;;;;;;6.88;1.65;;;;;;;;;;4993422;28;20023;-79
2022/07/11 07:28:58;;;;;;;6.00;1.60;;;;;;;;;;4993301;28;20026;-80
2022/07/11 07:31:24;;;;;;;6.47;1.60;;;;;;;;;;4993662;28;20026;-80
2022/07/11 07:33:49;;;;;;;4.47;1.58;;;;;;;;;;4975603;28;20037;-80
2022/07/11 07:36:15;;;;;;;3.70;1.50;;;;;;;;;;4994892;28;20518;-79
2022/07/11 07:38:43;;;;;;;7.03;1.50;;;;;;;;;;4994460;28;20029;-81
2022/07/11 07:41:11;;;;;;;3.85;1.50;;;;;;;;;;4993751;28;20113;-80
2022/07/11 07:43:37;;;;;;;7.70;1.60;;;;;;;;;;4995512;28;20106;-80
2022/07/11 07:46:02;;;;;;;7.82;1.83;;;;;;;;;;4992934;28;20113;-80
2022/07/11 07:48:28;;;;;;;3.15;1.60;;;;;;;;;;4994347;28;20022;-81
2022/07/11 07:50:56;;;;;;;5.53;1.77;;;;;;;;;;4993115;28;20034;-78
2022/07/11 07:53:22;;;;;;;3.50;1.45;;;;;;;;;;4990361;28;20041;-77
2022/07/11 07:55:47;;;;;;;3.85;1.60;;;;;;;;;;4991470;28;20026;-78
2022/07/11 07:58:12;;;;;;;3.42;1.80;;;;;;;;;;4991604;28;20081;-78
2022/07/11 08:03:22;;;;;;;6.40;1.60;;;;;;;;;;4992847;28;20105;-82
2022/07/11 08:05:47;;;;;;;5.25;1.60;;;;;;;;;;4992501;28;20116;-85
2022/07/11 08:08:12;;;;;;;4.30;1.60;;;;;;;;;;4997004;28;20157;-83
2022/07/11 08:10:39;;;;;;;3.78;1.50;;;;;;;;;;4999497;28;20026;-81
2022/07/11 08:13:04;;;;;;;8.93;1.75;;;;;;;;;;4996375;28;20058;-79
2022/07/11 08:15:29;;;;;;;3.92;1.80;;;;;;;;;;4995428;28;20034;-83
2022/07/11 08:17:55;;;;;;;35.53;3.17;;;;;;;;;;4992372;28;20022;-85
2022/07/11 08:20:20;;;;;;;9.10;1.60;;;;;;;;;;4974885;28;20063;-82
2022/07/11 08:22:46;;;;;;;4.97;1.85;;;;;;;;;;4992161;28;20497;-78
2022/07/11 08:25:11;;;;;;;6.30;1.83;;;;;;;;;;4982405;28;20454;-83
2022/07/11 08:27:37;;;;;;;5.00;1.75;;;;;;;;;;4966258;28;20034;-81
2022/07/11 08:30:05;;;;;;;4.43;1.65;;;;;;;;;;4997519;28;20381;-78
2022/07/11 08:32:31;;;;;;;6.30;1.75;;;;;;;;;;4992607;28;20029;-78
2022/07/11 08:34:56;;;;;;;6.78;1.77;;;;;;;;;;4984978;28;20014;-78
2022/07/11 08:37:21;;;;;;;6.65;1.90;;;;;;;;;;4998027;28;20378;-85
2022/07/11 08:39:47;;;;;;;3.33;1.65;;;;;;;;;;4996678;28;20030;-78
2022/07/11 08:42:13;;;;;;;6.25;1.70;;;;;;;;;;4993026;28;20101;-80
2022/07/11 08:44:39;;;;;;;4.13;1.60;;;;;;;;;;4999676;28;20031;-80
2022/07/11 08:47:05;;;;;;;4.95;1.55;;;;;;;;;;4996998;28;20030;-79
2022/07/11 08:49:31;;;;;;;5.90;1.55;;;;;;;;;;4991526;28;20018;-79
2022/07/11 08:51:58;;;;;;;2.85;1.40;;;;;;;;;;4991217;28;20113;-79
2022/07/11 08:54:23;;;;;;;5.55;1.70;;;;;;;;;;4993613;28;20026;-81
2022/07/11 08:56:50;;;;;;;4.28;1.52;;;;;;;;;;5000702;28;20098;-82
2022/07/11 08:59:19;;;;;;;5.28;1.40;;;;;;;;;;4982916;28;20534;-82
2022/07/11 09:01:51;;;;;;;3.45;1.33;;;;;;;;;;4969915;28;20032;-82
2022/07/11 09:04:17;;;;;;;5.97;1.45;;;;;;;;;;4991212;28;20026;-83
2022/07/11 09:06:42;;;;;;;2.08;1.30;;;;;;;;;;4991041;28;20076;-83
2022/07/11 09:09:08;;;;;;;3.53;1.30;;;;;;;;;;4974533;28;20033;-81
2022/07/11 09:11:50;;;;;;;1.60;1.10;;;;;;;;;;4993737;28;20043;-83
2022/07/11 09:14:29;;;;;;;2.70;1.30;;;;;;;;;;4991178;28;20613;-80
2022/07/11 09:17:03;;;;;;;10.88;3.13;;;;;;;;;;4993674;28;20113;-84
2022/07/11 09:19:33;;;;;;;1.85;1.25;;;;;;;;;;4992372;28;20121;-83
2022/07/11 09:28:01;;;;;;;4.50;1.38;;;;;;;;;;4991577;28;20034;-78
2022/07/11 09:30:31;;;;;;;4.85;1.52;;;;;;;;;;4990726;28;20663;-78
2022/07/11 09:33:00;;;;;;;2.53;1.30;;;;;;;;;;4990660;28;20026;-86
2022/07/11 09:35:33;;;;;;;2.42;1.25;;;;;;;;;;4973286;28;20521;-77
2022/07/11 09:38:02;;;;;;;3.88;1.35;;;;;;;;;;4988386;28;20150;-77
2022/07/11 09:40:27;;;;;;;2.25;1.13;;;;;;;;;;4982675;28;20030;-77
2022/07/11 09:42:55;;;;;;;2.90;1.50;;;;;;;;;;4990745;28;20034;-77
2022/07/11 09:45:23;;;;;;;3.78;1.20;;;;;;;;;;4990907;28;20612;-77
2022/07/11 09:47:51;;;;;;;4.43;1.30;;;;;;;;;;4990648;28;20027;-78
2022/07/11 09:50:20;;;;;;;6.65;1.50;;;;;;;;;;4994247;28;20130;-76
2022/07/11 09:53:03;;;;;;;15.35;1.50;;;;;;;;;;4989015;28;20046;-76
2022/07/11 09:55:34;;;;;;;3.28;1.30;;;;;;;;;;4989311;28;20442;-85
2022/07/11 09:58:04;;;;;;;5.38;1.30;;;;;;;;;;4976474;28;20515;-83
2022/07/11 10:00:30;;;;;;;2.42;1.30;;;;;;;;;;4994815;28;20069;-82
2022/07/11 10:02:58;;;;;;;3.63;1.50;;;;;;;;;;5001336;28;20097;-80
2022/07/11 10:05:24;;;;;;;3.15;1.30;;;;;;;;;;4977697;28;20066;-82
2022/07/11 10:07:50;;;;;;;2.45;1.25;;;;;;;;;;4987129;28;20030;-81
2022/07/11 10:10:16;;;;;;;2.63;1.48;;;;;;;;;;4987813;28;20088;-78
2022/07/11 10:12:44;;;;;;;2.28;1.30;;;;;;;;;;4988517;28;20018;-81
2022/07/11 10:15:11;;;;;;;1.83;1.27;;;;;;;;;;4987897;28;20442;-81
2022/07/11 10:17:36;;;;;;;3.75;1.33;;;;;;;;;;4989175;28;20582;-81
2022/07/11 10:20:07;;;;;;;2.58;1.27;;;;;;;;;;4989790;28;20102;-81
2022/07/11 10:22:42;;;;;;;4.10;1.40;;;;;;;;;;4993746;28;20050;-82
2022/07/11 10:25:16;;;;;;;5.03;1.35;;;;;;;;;;4994233;28;20027;-81
2022/07/11 10:27:51;;;;;;;3.40;1.30;;;;;;;;;;4994155;28;20034;-82
2022/07/11 10:30:39;;;;;;;3.92;1.50;;;;;;;;;;4993769;28;20046;-82
2022/07/11 10:33:06;;;;;;;3.22;1.30;;;;;;;;;;4994140;28;20027;-82
2022/07/11 10:35:31;;;;;;;4.93;1.50;;;;;;;;;;4996139;28;20014;-81
2022/07/11 10:37:58;;;;;;;2.63;1.55;;;;;;;;;;4995569;28;20511;-82
2022/07/11 10:40:46;;;;;;;6.13;1.35;;;;;;;;;;4994117;28;20018;-82
2022/07/11 10:43:14;;;;;;;5.85;1.50;;;;;;;;;;4994043;28;20027;-82
2022/07/11 10:46:11;;;;;;;2.55;1.42;;;;;;;;;;4976348;28;20117;-82
2022/07/11 10:48:51;;;;;;;2.92;1.30;;;;;;;;;;4974255;28;20041;-82
2022/07/11 10:51:19;;;;;;;;;;;;;;;;;;4994401;28;20553;-82
2022/07/11 10:53:50;;;;;;;3.95;1.35;;;;;;;;;;4976080;28;19909;-81
2022/07/11 10:56:22;;;;;;;2.35;1.33;;;;;;;;;;4994013;28;20105;-83
2022/07/11 10:59:13;;;;;;;2.25;1.27;;;;;;;;;;4993736;28;20074;-85
2022/07/11 11:02:11;;;;;;;2.33;1.35;;;;;;;;;;5002694;28;20181;-80
2022/07/11 11:04:48;;;;;;;2.42;1.25;;;;;;;;;;5005010;28;20029;-79
2022/07/11 11:07:33;;;;;;;1.85;1.30;;;;;;;;;;5004851;28;20357;-83
2022/07/11 11:10:01;;;;;;;2.90;1.30;;;;;;;;;;5004700;28;20041;-79
2022/07/11 11:13:09;;;;;;;4.97;1.38;;;;;;;;;;5004908;28;20270;-79
2022/07/11 11:15:49;;;;;;;2.67;1.17;;;;;;;;;;5003026;28;20464;-80
2022/07/11 11:18:23;;;;;;;1.90;1.30;;;;;;;;;;5002793;28;20022;-75
2022/07/11 11:21:09;;;;;;;4.20;1.40;;;;;;;;;;5003380;28;20038;-76
2022/07/11 11:23:37;;;;;;;3.55;1.38;;;;;;;;;;4973057;28;20039;-77
2022/07/11 11:26:06;;;;;;;2.50;1.27;;;;;;;;;;4998126;28;20077;-77
2022/07/11 11:28:32;;;;;;;3.60;1.30;;;;;;;;;;5001826;28;20030;-77
2022/07/11 11:31:03;;;;;;;3.05;1.40;;;;;;;;;;4999399;28;20058;-77
2022/07/11 11:33:33;;;;;;;2.67;1.20;;;;;;;;;;5002126;28;20258;-77
2022/07/11 11:36:07;;;;;;;;;;;;;;;;;;4995502;28;20039;-77
2022/07/11 11:38:37;;;;;;;2.78;1.50;;;;;;;;;;4993265;28;19910;-77
2022/07/11 11:41:05;;;;;;;;;;;;;;;;;;4996173;28;20058;-77
2022/07/11 11:43:31;;;;;;;1.83;1.30;;;;;;;;;;4994432;28;19917;-78
2022/07/11 11:45:57;;;;;;;4.80;1.45;;;;;;;;;;4977162;28;20030;-78
2022/07/11 11:48:30;;;;;;;3.10;1.40;;;;;;;;;;4999314;28;20048;-79
2022/07/11 11:51:05;;;;;;;4.45;1.45;;;;;;;;;;4996153;28;20034;-87
2022/07/11 11:53:43;;;;;;;2.03;1.20;;;;;;;;;;4994992;28;20368;-81
2022/07/11 11:56:33;;;;;;;3.50;1.40;;;;;;;;;;4981274;28;20023;-79
2022/07/11 11:59:12;;;;;;;5.65;1.42;;;;;;;;;;4989390;28;20050;-76
2022/07/11 12:01:39;;;;;;;2.87;1.20;;;;;;;;;;4984853;28;20649;-80
2022/07/11 12:04:08;;;;;;;2.25;1.30;;;;;;;;;;4984688;28;20077;-79
2022/07/11 12:06:36;;;;;;;3.60;1.30;;;;;;;;;;4990860;28;20073;-78
2022/07/11 12:09:06;;;;;;;1.83;1.30;;;;;;;;;;4984763;28;20313;-89
2022/07/11 12:11:33;;;;;;;5.00;1.48;;;;;;;;;;4992465;28;20034;-82
2022/07/11 12:14:01;;;;;;;2.03;1.20;;;;;;;;;;4989682;28;20064;-83
2022/07/11 12:16:39;;;;;;;2.25;1.23;;;;;;;;;;4982843;28;20098;-81
2022/07/11 12:19:08;;;;;;;6.25;1.63;;;;;;;;;;4990965;28;20038;-83
2022/07/11 12:21:35;;;;;;;3.17;1.50;;;;;;;;;;4990507;28;20118;-81
2022/07/11 12:24:04;;;;;;;13.00;1.85;;;;;;;;;;4995735;28;20045;-86
2022/07/11 12:26:32;;;;;;;2.83;1.50;;;;;;;;;;4992170;28;20039;-80
2022/07/11 12:29:16;;;;;;;3.08;1.35;;;;;;;;;;4989828;28;20034;-82
2022/07/11 12:31:59;;;;;;;3.95;1.30;;;;;;;;;;4992005;28;20027;-80
2022/07/11 12:34:30;;;;;;;3.10;1.25;;;;;;;;;;4991671;28;20341;-82
2022/07/11 12:37:02;;;;;;;3.78;1.40;;;;;;;;;;4991051;28;20034;-82
2022/07/11 12:39:30;;;;;;;1.90;1.20;;;;;;;;;;4992904;28;20030;-82
2022/07/11 12:41:57;;;;;;;2.80;1.30;;;;;;;;;;4991580;28;20031;-83
2022/07/11 12:45:07;;;;;;;2.95;1.20;;;;;;;;;;4999981;28;20110;-81
2022/07/11 12:47:14;;;;;;;2.83;1.20;;;;;;;;;;4992667;28;20314;-81
2022/07/11 12:49:44;;;;;;;3.63;1.20;;;;;;;;;;4986310;28;20038;-82
2022/07/11 12:52:09;;;;;;;;;;;;;;;;;;4996480;28;20090;-81
2022/07/11 12:54:35;;;;;;;2.13;1.20;;;;;;;;;;5000810;28;19925;-75
2022/07/11 12:57:04;;;;;;;2.45;1.00;;;;;;;;;;5001059;28;20229;-80
2022/07/11 12:59:32;;;;;;;2.45;1.20;;;;;;;;;;5001091;28;20109;-81
2022/07/11 13:02:03;;;;;;;2.97;1.30;;;;;;;;;;5001459;28;20019;-80
2022/07/11 13:04:29;;;;;;;3.05;1.30;;;;;;;;;;5001507;28;20222;-74
2022/07/11 13:09:38;;;;;;;2.25;1.20;;;;;;;;;;4999027;28;20029;-75
2022/07/11 13:12:04;;;;;;;4.60;1.23;;;;;;;;;;4998484;28;20030;-75
2022/07/11 13:17:14;;;;;;;2.85;1.10;;;;;;;;;;5000973;28;20056;-73
2022/07/11 13:19:39;;;;;;;3.40;1.17;;;;;;;;;;5001698;28;20034;-75
2022/07/11 13:22:04;;;;;;;4.13;1.25;;;;;;;;;;5001560;28;20068;-80
2022/07/11 13:24:30;;;;;;;4.80;1.30;;;;;;;;;;5001030;28;20218;-80
2022/07/11 13:26:57;;;;;;;2.75;1.30;;;;;;;;;;5001019;28;20097;-80
2022/07/11 13:29:22;;;;;;;2.92;1.17;;;;;;;;;;4999535;28;20030;-80
2022/07/11 13:31:47;;;;;;;1.55;1.10;;;;;;;;;;4999671;28;20539;-81
2022/07/11 13:34:15;;;;;;;2.60;1.17;;;;;;;;;;5001252;28;20027;-80
2022/07/11 13:36:40;;;;;;;1.63;1.20;;;;;;;;;;5001254;28;20082;-80
2022/07/11 13:39:05;;;;;;;2.78;1.10;;;;;;;;;;5000748;28;20318;-81
2022/07/11 13:41:31;;;;;;;2.92;1.15;;;;;;;;;;5000899;28;20436;-80
2022/07/11 13:43:56;;;;;;;4.32;1.30;;;;;;;;;;5000610;28;20226;-80
2022/07/11 13:46:22;;;;;;;2.40;1.13;;;;;;;;;;4999568;28;20050;-78
2022/07/11 13:48:47;;;;;;;1.92;1.25;;;;;;;;;;5000124;28;20288;-81
2022/07/11 13:51:12;;;;;;;2.67;1.13;;;;;;;;;;5000291;28;20227;-80
2022/07/11 13:53:38;;;;;;;1.70;1.10;;;;;;;;;;4996344;28;20068;-79
2022/07/11 13:56:05;;;;;;;4.28;1.17;;;;;;;;;;4999650;28;20038;-81
2022/07/11 13:58:31;;;;;;;1.58;1.15;;;;;;;;;;4997802;28;20238;-80
2022/07/11 14:00:58;;;;;;;1.35;1.10;;;;;;;;;;5000758;28;20034;-81
2022/07/11 14:03:23;;;;;;;4.90;1.38;;;;;;;;;;5000747;28;20249;-80
2022/07/11 14:05:49;;;;;;;1.52;1.10;;;;;;;;;;5000747;28;20022;-81
2022/07/11 14:08:15;;;;;;;3.03;1.10;;;;;;;;;;5000597;28;20019;-80
2022/07/11 14:10:42;;;;;;;2.40;1.10;;;;;;;;;;5000781;28;20030;-80
2022/07/11 14:13:07;;;;;;;3.58;1.17;;;;;;;;;;4997331;28;20041;-79
2022/07/11 14:15:32;;;;;;;1.40;1.08;;;;;;;;;;4997160;28;20038;-80
2022/07/11 14:17:59;;;;;;;4.15;1.20;;;;;;;;;;5000829;28;20068;-80
2022/07/11 14:20:26;;;;;;;2.38;1.17;;;;;;;;;;4987823;28;20034;-80
2022/07/11 14:22:51;;;;;;;2.65;1.10;;;;;;;;;;4992536;28;20023;-79
2022/07/11 14:25:17;;;;;;;3.78;1.30;;;;;;;;;;4999789;28;20065;-80
2022/07/11 14:27:42;;;;;;;3.05;1.20;;;;;;;;;;5000537;28;20026;-80
2022/07/11 14:30:08;;;;;;;2.13;1.10;;;;;;;;;;4999871;28;20209;-80
2022/07/11 14:32:34;;;;;;;1.83;1.20;;;;;;;;;;4985418;28;20628;-79
2022/07/11 14:34:59;;;;;;;2.17;1.15;;;;;;;;;;4990429;28;20030;-78
2022/07/11 14:37:26;;;;;;;1.90;1.20;;;;;;;;;;4997464;28;20022;-79
2022/07/11 14:39:51;;;;;;;1.80;1.00;;;;;;;;;;4984513;28;20027;-79
2022/07/11 14:42:17;;;;;;;1.63;1.10;;;;;;;;;;4988142;28;20030;-83
2022/07/11 14:44:42;;;;;;;5.30;1.30;;;;;;;;;;4988863;28;20034;-80
2022/07/11 14:47:08;;;;;;;4.53;1.30;;;;;;;;;;4971664;28;20093;-82
2022/07/11 14:49:34;;;;;;;4.45;1.30;;;;;;;;;;4989121;28;20482;-80
2022/07/11 14:51:59;;;;;;;5.65;1.30;;;;;;;;;;4990591;28;20038;-81
2022/07/11 14:54:25;;;;;;;1.52;1.20;;;;;;;;;;4988744;28;20034;-83
2022/07/11 14:56:50;;;;;;;1.83;1.23;;;;;;;;;;4990489;28;20112;-81
2022/07/11 14:59:16;;;;;;;2.05;1.27;;;;;;;;;;4988858;28;20030;-80
2022/07/11 15:01:41;;;;;;;3.58;1.30;;;;;;;;;;4988714;28;20026;-81
2022/07/11 15:04:06;;;;;;;2.85;1.40;;;;;;;;;;4988562;28;20023;-79